createdAt,value
2018-07-21T00:00:23.117Z,6.30
2018-07-21T00:01:23.280Z,6.20
2018-07-21T00:02:23.439Z,6.10
2018-07-21T00:03:23.554Z,6.40
2018-07-21T00:04:23.716Z,6.10
2018-07-21T00:05:24.539Z,6.30
2018-07-21T00:07:55.825Z,6.70
2018-07-21T00:08:55.972Z,6.70
2018-07-21T00:09:56.105Z,6.80
2018-07-21T00:10:56.252Z,6.50
2018-07-21T00:11:56.381Z,7.50
2018-07-21T00:12:56.528Z,8.30
2018-07-21T00:13:56.697Z,7.10
2018-07-21T00:14:56.822Z,7.20
2018-07-21T00:15:56.965Z,6.90
2018-07-21T00:16:57.115Z,7.10
2018-07-21T00:17:57.250Z,6.70
2018-07-21T00:18:57.394Z,6.50
2018-07-21T00:19:57.554Z,6.50
2018-07-21T00:20:57.695Z,6.80
2018-07-21T00:21:57.847Z,6.80
2018-07-21T00:22:58.011Z,6.60
2018-07-21T00:23:58.144Z,7.00
2018-07-21T00:24:58.287Z,6.50
2018-07-21T00:25:58.454Z,6.40
2018-07-21T00:26:58.584Z,6.50
2018-07-21T00:27:58.724Z,6.50
2018-07-21T00:28:58.881Z,6.50
2018-07-21T00:29:59.011Z,6.20
2018-07-21T00:30:59.151Z,5.80
2018-07-21T00:31:59.313Z,5.90
2018-07-21T00:32:59.442Z,6.00
2018-07-21T00:33:59.604Z,5.80
2018-07-21T00:34:59.760Z,6.00
2018-07-21T00:35:59.905Z,5.90
2018-07-21T00:37:00.066Z,6.20
2018-07-21T00:38:00.235Z,6.20
2018-07-21T00:39:00.372Z,6.30
2018-07-21T00:40:00.509Z,6.30
2018-07-21T00:41:00.669Z,6.30
2018-07-21T00:42:00.803Z,6.20
2018-07-21T00:43:00.939Z,5.90
2018-07-21T00:44:01.110Z,6.30
2018-07-21T00:45:01.246Z,6.10
2018-07-21T00:46:01.402Z,6.40
2018-07-21T00:47:01.564Z,6.20
2018-07-21T00:48:01.698Z,6.00
2018-07-21T00:49:01.847Z,6.50
2018-07-21T00:50:01.988Z,6.30
2018-07-21T00:51:02.184Z,6.40
2018-07-21T00:52:02.322Z,6.40
2018-07-21T00:53:02.490Z,6.60
2018-07-21T00:54:02.620Z,6.30
2018-07-21T00:55:02.767Z,6.30
2018-07-21T00:56:02.925Z,6.60
2018-07-21T00:57:03.062Z,6.60
2018-07-21T00:58:03.198Z,7.00
2018-07-21T00:59:03.362Z,6.50
2018-07-21T01:00:03.496Z,6.40
2018-07-21T01:01:03.633Z,6.40
2018-07-21T01:02:03.778Z,6.60
2018-07-21T01:03:03.918Z,6.70
2018-07-21T01:04:04.059Z,6.30
2018-07-21T01:05:04.200Z,6.50
2018-07-21T01:06:04.341Z,7.00
2018-07-21T01:07:04.481Z,6.80
2018-07-21T01:08:04.623Z,6.20
2018-07-21T01:09:04.760Z,6.80
2018-07-21T01:10:04.904Z,7.00
2018-07-21T01:11:05.046Z,7.00
2018-07-21T01:12:05.178Z,6.70
2018-07-21T01:13:05.320Z,6.70
2018-07-21T01:14:05.470Z,6.40
2018-07-21T01:15:05.611Z,6.20
2018-07-21T01:16:05.754Z,6.30
2018-07-21T01:17:05.890Z,7.10
2018-07-21T01:18:06.037Z,6.60
2018-07-21T01:19:06.193Z,6.20
2018-07-21T01:20:06.348Z,5.90
2018-07-21T01:21:06.483Z,6.30
2018-07-21T01:22:06.626Z,6.50
2018-07-21T01:23:06.769Z,6.40
2018-07-21T01:24:06.916Z,6.30
2018-07-21T01:25:07.054Z,6.90
2018-07-21T01:26:07.193Z,6.50
2018-07-21T01:27:07.331Z,6.40
2018-07-21T01:28:08.015Z,6.80
2018-07-21T01:29:07.605Z,6.70
2018-07-21T01:30:07.742Z,6.40
2018-07-21T01:31:07.879Z,6.10
2018-07-21T01:32:08.024Z,6.40
2018-07-21T01:33:08.162Z,6.60
2018-07-21T01:34:08.301Z,6.30
2018-07-21T01:35:08.440Z,6.50
2018-07-21T01:36:08.586Z,6.50
2018-07-21T01:37:08.727Z,6.80
2018-07-21T01:38:08.868Z,6.20
2018-07-21T01:39:09.015Z,6.30
2018-07-21T01:40:09.166Z,6.40
2018-07-21T01:41:09.312Z,6.80
2018-07-21T01:42:09.458Z,6.70
2018-07-21T01:43:09.595Z,6.30
2018-07-21T01:44:09.736Z,6.70
2018-07-21T01:45:09.877Z,6.70
2018-07-21T01:46:10.018Z,6.70
2018-07-21T01:47:10.164Z,6.70
2018-07-21T01:48:10.304Z,7.00
2018-07-21T01:49:10.446Z,6.20
2018-07-21T01:50:10.589Z,6.80
2018-07-21T01:51:10.735Z,6.80
2018-07-21T01:52:10.871Z,7.20
2018-07-21T01:53:11.038Z,7.40
2018-07-21T01:54:11.170Z,7.40
2018-07-21T01:55:11.314Z,7.20
2018-07-21T01:56:11.462Z,6.70
2018-07-21T01:57:11.596Z,6.80
2018-07-21T01:58:11.736Z,6.70
2018-07-21T01:59:11.897Z,6.50
2018-07-21T02:00:12.038Z,7.00
2018-07-21T02:01:12.179Z,6.90
2018-07-21T02:02:12.364Z,6.20
2018-07-21T02:03:12.472Z,6.80
2018-07-21T02:04:12.615Z,7.20
2018-07-21T02:05:12.755Z,6.80
2018-07-21T02:06:12.900Z,6.90
2018-07-21T02:07:13.036Z,6.60
2018-07-21T02:08:13.186Z,6.60
2018-07-21T02:09:13.316Z,6.10
2018-07-21T02:10:13.457Z,6.60
2018-07-21T02:11:13.596Z,7.00
2018-07-21T02:12:13.732Z,6.40
2018-07-21T02:13:13.868Z,7.10
2018-07-21T02:14:14.026Z,7.00
2018-07-21T02:15:14.210Z,6.90
2018-07-21T02:16:14.354Z,6.80
2018-07-21T02:17:14.514Z,6.90
2018-07-21T02:18:14.651Z,6.80
2018-07-21T02:19:14.796Z,6.80
2018-07-21T02:20:14.950Z,6.90
2018-07-21T02:21:15.097Z,7.00
2018-07-21T02:22:15.233Z,6.40
2018-07-21T02:23:15.392Z,6.90
2018-07-21T02:24:15.523Z,7.00
2018-07-21T02:25:15.665Z,7.20
2018-07-21T02:26:15.819Z,6.90
2018-07-21T02:27:15.954Z,6.60
2018-07-21T02:28:16.092Z,6.60
2018-07-21T02:29:16.254Z,7.30
2018-07-21T02:30:16.388Z,6.60
2018-07-21T02:31:16.531Z,6.90
2018-07-21T02:32:16.708Z,7.30
2018-07-21T02:33:16.833Z,6.70
2018-07-21T02:34:16.974Z,7.10
2018-07-21T02:35:17.142Z,7.60
2018-07-21T02:36:17.271Z,7.30
2018-07-21T02:37:17.425Z,7.30
2018-07-21T02:38:17.583Z,7.00
2018-07-21T02:39:17.718Z,7.60
2018-07-21T02:40:17.855Z,7.30
2018-07-21T02:41:18.008Z,7.20
2018-07-21T02:42:18.148Z,7.80
2018-07-21T02:43:18.290Z,7.10
2018-07-21T02:44:18.498Z,7.20
2018-07-21T02:45:18.578Z,7.40
2018-07-21T02:46:18.714Z,7.20
2018-07-21T02:47:18.854Z,7.30
2018-07-21T02:48:18.997Z,7.60
2018-07-21T02:49:19.166Z,7.60
2018-07-21T02:50:19.304Z,7.80
2018-07-21T02:51:19.444Z,7.60
2018-07-21T02:52:19.590Z,7.70
2018-07-21T02:53:19.720Z,7.60
2018-07-21T02:54:19.918Z,8.00
2018-07-21T02:55:20.060Z,7.60
2018-07-21T02:56:20.203Z,7.30
2018-07-21T02:57:20.348Z,7.20
2018-07-21T02:58:20.667Z,7.90
2018-07-21T02:59:20.622Z,7.80
2018-07-21T03:00:20.765Z,7.20
2018-07-21T03:01:20.912Z,7.60
2018-07-21T03:02:21.053Z,8.00
2018-07-21T03:03:21.190Z,9.20
2018-07-21T03:04:21.329Z,8.50
2018-07-21T03:05:21.472Z,9.10
2018-07-21T03:06:21.671Z,8.50
2018-07-21T03:07:21.810Z,8.20
2018-07-21T03:08:21.957Z,8.80
2018-07-21T03:09:22.109Z,8.70
2018-07-21T03:10:22.247Z,8.50
2018-07-21T03:11:22.380Z,8.00
2018-07-21T03:12:22.521Z,8.10
2018-07-21T03:13:22.669Z,9.20
2018-07-21T03:14:22.806Z,8.80
2018-07-21T03:15:22.962Z,9.20
2018-07-21T03:16:23.095Z,9.10
2018-07-21T03:17:23.238Z,8.60
2018-07-21T03:18:23.383Z,9.00
2018-07-21T03:19:23.526Z,8.40
2018-07-21T03:20:23.665Z,8.40
2018-07-21T03:21:23.863Z,8.90
2018-07-21T03:22:24.006Z,9.00
2018-07-21T03:23:24.196Z,9.50
2018-07-21T03:24:24.275Z,8.60
2018-07-21T03:25:24.431Z,8.80
2018-07-21T03:26:24.565Z,8.70
2018-07-21T03:27:24.711Z,8.80
2018-07-21T03:28:24.849Z,8.80
2018-07-21T03:29:24.991Z,8.50
2018-07-21T03:30:25.138Z,8.20
2018-07-21T03:31:25.285Z,8.40
2018-07-21T03:32:25.421Z,8.40
2018-07-21T03:33:25.587Z,7.90
2018-07-21T03:34:25.746Z,9.00
2018-07-21T03:35:25.883Z,8.20
2018-07-21T03:36:26.031Z,8.30
2018-07-21T03:37:26.167Z,8.30
2018-07-21T03:38:26.314Z,8.00
2018-07-21T03:39:26.455Z,8.20
2018-07-21T03:40:26.640Z,8.40
2018-07-21T03:41:26.745Z,8.80
2018-07-21T03:42:26.885Z,8.60
2018-07-21T03:43:27.026Z,8.90
2018-07-21T03:44:27.178Z,8.20
2018-07-21T03:45:27.316Z,8.70
2018-07-21T03:46:27.451Z,8.20
2018-07-21T03:47:27.592Z,7.90
2018-07-21T03:48:27.736Z,8.30
2018-07-21T03:49:27.878Z,8.10
2018-07-21T03:50:28.019Z,8.20
2018-07-21T03:51:28.157Z,8.00
2018-07-21T03:52:28.300Z,8.00
2018-07-21T03:53:28.437Z,8.40
2018-07-21T03:54:28.583Z,8.30
2018-07-21T03:55:28.715Z,7.50
2018-07-21T03:56:28.871Z,7.80
2018-07-21T03:57:29.003Z,7.70
2018-07-21T03:58:29.144Z,7.90
2018-07-21T03:59:29.282Z,7.80
2018-07-21T04:00:29.464Z,8.00
2018-07-21T04:01:29.565Z,7.50
2018-07-21T04:02:29.703Z,8.40
2018-07-21T04:03:29.839Z,8.40
2018-07-21T04:04:29.979Z,8.50
2018-07-21T04:05:30.138Z,8.80
2018-07-21T04:06:30.269Z,8.10
2018-07-21T04:07:30.405Z,8.80
2018-07-21T04:08:30.546Z,7.90
2018-07-21T04:09:30.739Z,8.40
2018-07-21T04:10:30.875Z,8.20
2018-07-21T04:11:31.045Z,8.50
2018-07-21T04:12:31.269Z,8.50
2018-07-21T04:13:31.283Z,8.30
2018-07-21T04:14:31.421Z,8.00
2018-07-21T04:15:31.580Z,8.60
2018-07-21T04:16:31.760Z,8.40
2018-07-21T04:17:31.877Z,9.10
2018-07-21T04:18:32.012Z,8.60
2018-07-21T04:19:32.151Z,8.30
2018-07-21T04:20:32.316Z,8.30
2018-07-21T04:21:32.453Z,8.00
2018-07-21T04:22:32.592Z,8.30
2018-07-21T04:23:32.759Z,8.50
2018-07-21T04:24:32.900Z,8.20
2018-07-21T04:25:33.042Z,8.70
2018-07-21T04:26:33.195Z,8.70
2018-07-21T04:27:33.329Z,8.90
2018-07-21T04:28:33.471Z,8.50
2018-07-21T04:29:33.632Z,8.20
2018-07-21T04:30:33.758Z,8.60
2018-07-21T04:31:33.902Z,8.70
2018-07-21T04:32:34.058Z,8.30
2018-07-21T04:33:34.274Z,8.20
2018-07-21T04:34:34.297Z,8.20
2018-07-21T04:35:34.449Z,8.40
2018-07-21T04:36:34.593Z,7.70
2018-07-21T04:37:34.732Z,8.50
2018-07-21T04:38:34.891Z,8.50
2018-07-21T04:39:35.022Z,8.40
2018-07-21T04:40:35.159Z,8.20
2018-07-21T04:41:35.324Z,8.00
2018-07-21T04:42:35.562Z,8.30
2018-07-21T04:43:35.576Z,8.20
2018-07-21T04:44:35.739Z,8.80
2018-07-21T04:45:35.886Z,8.40
2018-07-21T04:46:36.029Z,8.40
2018-07-21T04:47:36.247Z,8.10
2018-07-21T04:48:36.252Z,8.30
2018-07-21T04:49:36.392Z,8.40
2018-07-21T04:50:36.547Z,8.50
2018-07-21T04:51:36.684Z,8.00
2018-07-21T04:52:36.821Z,8.50
2018-07-21T04:53:36.964Z,8.80
2018-07-21T04:54:37.186Z,8.30
2018-07-21T04:55:37.195Z,8.50
2018-07-21T04:56:37.339Z,7.90
2018-07-21T04:57:37.472Z,8.40
2018-07-21T04:58:37.619Z,8.20
2018-07-21T04:59:37.772Z,8.50
2018-07-21T05:00:37.918Z,8.10
2018-07-21T05:01:38.051Z,7.70
2018-07-21T05:02:38.200Z,8.50
2018-07-21T05:03:38.344Z,8.60
2018-07-21T05:04:38.484Z,8.60
2018-07-21T05:05:38.631Z,9.80
2018-07-21T05:06:38.767Z,9.40
2018-07-21T05:07:38.905Z,9.30
2018-07-21T05:08:39.051Z,9.20
2018-07-21T05:09:39.192Z,8.80
2018-07-21T05:10:39.334Z,9.40
2018-07-21T05:11:39.475Z,9.30
2018-07-21T05:12:39.618Z,9.40
2018-07-21T05:13:39.759Z,8.90
2018-07-21T05:14:39.902Z,9.30
2018-07-21T05:15:40.042Z,9.20
2018-07-21T05:16:40.188Z,9.90
2018-07-21T05:17:40.333Z,9.40
2018-07-21T05:18:40.482Z,9.60
2018-07-21T05:19:40.616Z,9.30
2018-07-21T05:20:40.762Z,9.60
2018-07-21T05:21:40.901Z,9.50
2018-07-21T05:22:41.037Z,9.00
2018-07-21T05:23:41.177Z,8.70
2018-07-21T05:24:41.321Z,8.60
2018-07-21T05:25:41.465Z,8.20
2018-07-21T05:26:41.606Z,8.30
2018-07-21T05:27:41.746Z,8.40
2018-07-21T05:28:41.897Z,9.00
2018-07-21T05:29:42.035Z,8.60
2018-07-21T05:30:42.177Z,8.90
2018-07-21T05:31:42.324Z,10.00
2018-07-21T05:32:42.467Z,9.60
2018-07-21T05:33:42.605Z,9.20
2018-07-21T05:34:42.745Z,9.70
2018-07-21T05:35:42.882Z,10.20
2018-07-21T05:36:43.032Z,9.50
2018-07-21T05:37:43.165Z,9.70
2018-07-21T05:38:43.306Z,8.60
2018-07-21T05:39:43.442Z,9.20
2018-07-21T05:40:43.577Z,8.70
2018-07-21T05:41:43.717Z,8.90
2018-07-21T05:42:43.854Z,8.60
2018-07-21T05:43:44.004Z,9.30
2018-07-21T05:44:44.146Z,8.90
2018-07-21T05:45:44.287Z,8.50
2018-07-21T05:46:44.426Z,8.90
2018-07-21T05:47:44.567Z,8.60
2018-07-21T05:48:44.707Z,8.80
2018-07-21T05:49:44.851Z,8.20
2018-07-21T05:50:44.990Z,8.40
2018-07-21T05:51:45.131Z,8.70
2018-07-21T05:52:45.278Z,7.80
2018-07-21T05:53:45.410Z,8.80
2018-07-21T05:54:45.556Z,8.60
2018-07-21T05:55:45.697Z,8.60
2018-07-21T05:56:45.845Z,8.70
2018-07-21T05:57:45.991Z,8.20
2018-07-21T05:58:46.156Z,8.90
2018-07-21T05:59:46.286Z,8.20
2018-07-21T06:00:46.432Z,8.30
2018-07-21T06:01:46.594Z,8.70
2018-07-21T06:02:46.804Z,8.60
2018-07-21T06:03:46.886Z,8.30
2018-07-21T06:04:47.029Z,8.50
2018-07-21T06:05:47.186Z,8.20
2018-07-21T06:06:47.328Z,8.90
2018-07-21T06:07:47.498Z,8.80
2018-07-21T06:08:47.632Z,8.60
2018-07-21T06:09:47.770Z,8.60
2018-07-21T06:10:47.917Z,8.80
2018-07-21T06:11:48.055Z,8.70
2018-07-21T06:12:48.193Z,8.30
2018-07-21T06:13:48.356Z,8.40
2018-07-21T06:14:48.491Z,8.90
2018-07-21T06:15:48.633Z,8.60
2018-07-21T06:16:48.791Z,8.50
2018-07-21T06:17:48.930Z,8.50
2018-07-21T06:18:49.068Z,8.40
2018-07-21T06:19:49.210Z,7.70
2018-07-21T06:20:49.349Z,7.70
2018-07-21T06:21:49.492Z,8.10
2018-07-21T06:22:49.644Z,8.00
2018-07-21T06:23:49.799Z,7.70
2018-07-21T06:24:49.923Z,8.20
2018-07-21T06:25:50.071Z,7.80
2018-07-21T06:26:50.284Z,8.40
2018-07-21T06:27:50.303Z,7.90
2018-07-21T06:28:50.443Z,8.20
2018-07-21T06:29:50.572Z,8.20
2018-07-21T06:30:50.717Z,7.30
2018-07-21T06:31:50.871Z,7.90
2018-07-21T06:32:51.018Z,8.20
2018-07-21T06:33:51.163Z,7.80
2018-07-21T06:34:51.305Z,7.90
2018-07-21T06:35:51.440Z,7.90
2018-07-21T06:36:51.591Z,7.60
2018-07-21T06:37:51.756Z,7.60
2018-07-21T06:38:51.880Z,7.90
2018-07-21T06:39:52.028Z,7.90
2018-07-21T06:40:52.183Z,7.30
2018-07-21T06:41:52.321Z,7.20
2018-07-21T06:42:52.468Z,7.50
2018-07-21T06:43:52.656Z,6.90
2018-07-21T06:44:52.759Z,7.30
2018-07-21T06:45:52.900Z,7.10
2018-07-21T06:46:53.041Z,7.40
2018-07-21T06:47:53.179Z,7.00
2018-07-21T06:48:53.350Z,7.10
2018-07-21T06:49:53.517Z,7.40
2018-07-21T06:50:53.644Z,7.50
2018-07-21T06:51:53.795Z,7.00
2018-07-21T06:52:53.949Z,7.20
2018-07-21T06:53:54.086Z,7.00
2018-07-21T06:54:54.300Z,7.10
2018-07-21T06:55:54.333Z,6.90
2018-07-21T06:56:54.465Z,17.30
2018-07-21T06:57:54.607Z,14.30
2018-07-21T06:58:54.746Z,8.70
2018-07-21T06:59:54.907Z,8.40
2018-07-21T07:00:55.053Z,9.50
2018-07-21T07:01:55.190Z,7.60
2018-07-21T07:02:55.334Z,16.70
2018-07-21T07:03:55.484Z,8.80
2018-07-21T07:04:55.624Z,8.60
2018-07-21T07:05:55.769Z,14.00
2018-07-21T07:06:55.908Z,8.10
2018-07-21T07:07:56.051Z,9.30
2018-07-21T07:08:56.196Z,8.80
2018-07-21T07:09:56.337Z,7.60
2018-07-21T07:10:56.475Z,7.70
2018-07-21T07:11:56.617Z,9.10
2018-07-21T07:12:56.760Z,8.50
2018-07-21T07:13:56.911Z,7.40
2018-07-21T07:14:57.055Z,7.50
2018-07-21T07:15:57.194Z,7.40
2018-07-21T07:16:57.339Z,7.30
2018-07-21T07:17:57.481Z,7.40
2018-07-21T07:18:57.627Z,7.00
2018-07-21T07:19:57.767Z,7.20
2018-07-21T07:20:57.913Z,7.30
2018-07-21T07:21:58.052Z,7.40
2018-07-21T07:22:58.196Z,6.90
2018-07-21T07:23:58.343Z,7.30
2018-07-21T07:24:58.487Z,6.60
2018-07-21T07:25:58.625Z,6.80
2018-07-21T07:26:58.761Z,6.70
2018-07-21T07:27:58.901Z,6.70
2018-07-21T07:28:59.053Z,7.10
2018-07-21T07:29:59.192Z,6.80
2018-07-21T07:30:59.336Z,6.70
2018-07-21T07:31:59.468Z,6.50
2018-07-21T07:32:59.630Z,6.90
2018-07-21T07:33:59.770Z,6.90
2018-07-21T07:34:59.915Z,6.90
2018-07-21T07:36:00.055Z,6.80
2018-07-21T07:37:00.189Z,7.30
2018-07-21T07:38:00.337Z,6.50
2018-07-21T07:39:00.484Z,6.70
2018-07-21T07:40:00.629Z,7.20
2018-07-21T07:41:00.770Z,7.00
2018-07-21T07:42:00.925Z,7.10
2018-07-21T07:43:01.064Z,7.20
2018-07-21T07:44:01.205Z,7.00
2018-07-21T07:45:01.344Z,7.10
2018-07-21T07:46:01.486Z,7.10
2018-07-21T07:47:01.625Z,7.90
2018-07-21T07:48:01.769Z,7.70
2018-07-21T07:49:01.948Z,9.60
2018-07-21T07:50:02.081Z,9.40
2018-07-21T07:51:02.226Z,8.30
2018-07-21T07:52:02.366Z,12.00
2018-07-21T07:53:02.508Z,8.90
2018-07-21T07:54:02.656Z,8.10
2018-07-21T07:55:02.814Z,11.00
2018-07-21T07:56:02.950Z,9.80
2018-07-21T07:57:03.090Z,14.10
2018-07-21T07:58:03.258Z,13.10
2018-07-21T07:59:03.368Z,11.00
2018-07-21T08:00:03.518Z,12.00
2018-07-21T08:01:03.676Z,10.30
2018-07-21T08:02:03.815Z,8.60
2018-07-21T08:03:03.963Z,7.30
2018-07-21T08:04:04.110Z,8.00
2018-07-21T08:05:04.244Z,8.50
2018-07-21T08:06:04.381Z,7.80
2018-07-21T08:07:04.531Z,8.10
2018-07-21T08:08:04.673Z,7.90
2018-07-21T08:09:04.818Z,7.70
2018-07-21T08:10:04.973Z,7.50
2018-07-21T08:11:05.103Z,10.00
2018-07-21T08:12:05.243Z,10.30
2018-07-21T08:13:05.378Z,10.10
2018-07-21T08:14:05.581Z,7.70
2018-07-21T08:15:05.659Z,6.90
2018-07-21T08:16:05.822Z,8.00
2018-07-21T08:17:05.963Z,9.40
2018-07-21T08:18:06.180Z,8.70
2018-07-21T08:19:06.216Z,13.30
2018-07-21T08:20:06.338Z,8.40
2018-07-21T08:21:06.484Z,7.60
2018-07-21T08:22:06.621Z,8.10
2018-07-21T08:23:06.758Z,7.70
2018-07-21T08:24:06.899Z,6.90
2018-07-21T08:25:07.057Z,6.40
2018-07-21T08:26:07.199Z,6.50
2018-07-21T08:27:07.361Z,6.70
2018-07-21T08:28:07.467Z,7.00
2018-07-21T08:29:07.640Z,7.50
2018-07-21T08:30:07.749Z,8.00
2018-07-21T08:31:07.890Z,7.40
2018-07-21T08:32:08.031Z,7.30
2018-07-21T08:33:08.177Z,7.50
2018-07-21T08:34:08.318Z,9.50
2018-07-21T08:35:08.463Z,9.80
2018-07-21T08:36:08.606Z,7.50
2018-07-21T08:37:08.740Z,6.60
2018-07-21T08:38:08.884Z,6.50
2018-07-21T08:39:09.030Z,6.30
2018-07-21T08:40:09.180Z,6.30
2018-07-21T08:41:09.319Z,6.70
2018-07-21T08:42:09.464Z,11.00
2018-07-21T08:43:09.606Z,10.20
2018-07-21T08:44:09.750Z,7.20
2018-07-21T08:45:09.905Z,7.50
2018-07-21T08:46:10.067Z,13.70
2018-07-21T08:47:10.230Z,8.20
2018-07-21T08:48:10.356Z,10.90
2018-07-21T08:49:10.523Z,12.00
2018-07-21T08:50:10.676Z,19.00
2018-07-21T08:51:10.811Z,7.80
2018-07-21T08:52:10.958Z,15.70
2018-07-21T08:53:11.108Z,8.70
2018-07-21T08:54:11.256Z,11.20
2018-07-21T08:55:11.407Z,15.70
2018-07-21T08:56:11.549Z,14.70
2018-07-21T08:57:11.701Z,12.10
2018-07-21T08:58:11.849Z,14.10
2018-07-21T08:59:11.988Z,11.40
2018-07-21T09:00:12.142Z,19.80
2018-07-21T09:01:12.286Z,8.30
2018-07-21T09:02:12.436Z,10.00
2018-07-21T09:03:12.578Z,13.70
2018-07-21T09:04:12.717Z,17.60
2018-07-21T09:05:12.858Z,13.30
2018-07-21T09:06:13.011Z,16.50
2018-07-21T09:07:13.152Z,17.30
2018-07-21T09:08:13.299Z,12.90
2018-07-21T09:09:13.511Z,10.10
2018-07-21T09:10:13.609Z,9.00
2018-07-21T09:11:13.869Z,6.80
2018-07-21T09:12:13.918Z,6.30
2018-07-21T09:13:14.120Z,11.40
2018-07-21T09:14:14.276Z,8.10
2018-07-21T09:15:14.418Z,10.70
2018-07-21T09:16:14.556Z,9.20
2018-07-21T09:17:14.728Z,7.60
2018-07-21T09:18:14.857Z,7.40
2018-07-21T09:19:15.001Z,7.10
2018-07-21T09:20:15.150Z,6.80
2018-07-21T09:21:15.290Z,7.20
2018-07-21T09:22:15.430Z,6.70
2018-07-21T09:23:15.615Z,6.60
2018-07-21T09:24:15.728Z,6.40
2018-07-21T09:25:15.877Z,7.30
2018-07-21T09:26:16.044Z,6.90
2018-07-21T09:27:16.170Z,25.00
2018-07-21T09:28:16.396Z,8.10
2018-07-21T09:29:16.453Z,7.10
2018-07-21T09:30:16.604Z,7.70
2018-07-21T09:31:16.737Z,8.00
2018-07-21T09:32:16.900Z,7.50
2018-07-21T09:33:17.036Z,7.00
2018-07-21T09:34:17.292Z,6.50
2018-07-21T09:35:17.323Z,7.20
2018-07-21T09:36:17.483Z,6.40
2018-07-21T09:37:17.632Z,6.90
2018-07-21T09:38:17.779Z,6.80
2018-07-21T09:39:17.918Z,6.70
2018-07-21T09:40:18.134Z,7.00
2018-07-21T09:41:18.208Z,6.50
2018-07-21T09:42:18.353Z,6.90
2018-07-21T09:43:18.491Z,6.70
2018-07-21T09:44:18.635Z,7.00
2018-07-21T09:45:18.779Z,7.00
2018-07-21T09:46:18.922Z,7.00
2018-07-21T09:47:19.066Z,6.60
2018-07-21T09:48:19.208Z,6.70
2018-07-21T09:49:19.350Z,6.50
2018-07-21T09:50:19.496Z,6.80
2018-07-21T09:51:19.636Z,6.70
2018-07-21T09:52:19.781Z,6.30
2018-07-21T09:53:19.921Z,6.40
2018-07-21T09:54:20.064Z,6.40
2018-07-21T09:55:20.209Z,6.60
2018-07-21T09:56:20.354Z,6.60
2018-07-21T09:57:20.490Z,7.20
2018-07-21T09:58:20.637Z,6.70
2018-07-21T09:59:20.781Z,6.50
2018-07-21T10:00:20.924Z,6.60
2018-07-21T10:01:21.065Z,6.60
2018-07-21T10:02:21.213Z,6.50
2018-07-21T10:03:21.352Z,6.10
2018-07-21T10:04:21.508Z,6.40
2018-07-21T10:05:21.651Z,6.20
2018-07-21T10:06:21.795Z,6.20
2018-07-21T10:07:21.938Z,6.00
2018-07-21T10:08:22.088Z,6.20
2018-07-21T10:09:22.232Z,6.00
2018-07-21T10:10:22.382Z,6.20
2018-07-21T10:11:22.520Z,6.10
2018-07-21T10:12:22.664Z,6.20
2018-07-21T10:13:22.807Z,6.50
2018-07-21T10:14:22.950Z,6.10
2018-07-21T10:15:23.147Z,6.10
2018-07-21T10:16:23.243Z,6.70
2018-07-21T10:17:23.382Z,6.30
2018-07-21T10:18:23.526Z,6.40
2018-07-21T10:19:23.673Z,6.30
2018-07-21T10:20:23.819Z,6.90
2018-07-21T10:21:23.959Z,6.90
2018-07-21T10:22:24.104Z,6.30
2018-07-21T10:23:24.257Z,7.10
2018-07-21T10:24:24.398Z,6.80
2018-07-21T10:25:24.545Z,6.60
2018-07-21T10:26:24.704Z,6.50
2018-07-21T10:27:24.845Z,6.50
2018-07-21T10:28:25.029Z,6.10
2018-07-21T10:29:25.139Z,6.70
2018-07-21T10:30:25.276Z,6.10
2018-07-21T10:31:25.432Z,6.50
2018-07-21T10:32:25.570Z,6.70
2018-07-21T10:33:25.788Z,6.00
2018-07-21T10:34:25.878Z,6.00
2018-07-21T10:35:26.016Z,6.20
2018-07-21T10:36:26.162Z,6.60
2018-07-21T10:37:26.316Z,6.80
2018-07-21T10:38:26.458Z,6.50
2018-07-21T10:39:26.599Z,6.50
2018-07-21T10:40:26.795Z,6.50
2018-07-21T10:41:26.894Z,6.90
2018-07-21T10:42:27.042Z,6.20
2018-07-21T10:43:27.200Z,6.50
2018-07-21T10:44:27.352Z,6.20
2018-07-21T10:45:27.479Z,6.60
2018-07-21T10:46:27.641Z,6.60
2018-07-21T10:47:27.782Z,6.80
2018-07-21T10:48:27.996Z,6.50
2018-07-21T10:49:28.033Z,6.70
2018-07-21T10:50:28.200Z,6.50
2018-07-21T10:51:28.332Z,6.50
2018-07-21T10:52:28.487Z,6.70
2018-07-21T10:53:28.611Z,6.30
2018-07-21T10:54:28.750Z,6.40
2018-07-21T10:55:28.940Z,6.80
2018-07-21T10:56:29.076Z,6.60
2018-07-21T10:57:29.221Z,7.00
2018-07-21T10:58:29.382Z,6.70
2018-07-21T10:59:29.514Z,7.30
2018-07-21T11:00:29.659Z,7.10
2018-07-21T11:01:29.815Z,6.50
2018-07-21T11:02:29.966Z,6.90
2018-07-21T11:03:30.109Z,6.50
2018-07-21T11:04:30.271Z,6.30
2018-07-21T11:05:30.410Z,6.50
2018-07-21T11:06:30.552Z,7.10
2018-07-21T11:07:30.706Z,6.50
2018-07-21T11:08:30.851Z,6.50
2018-07-21T11:09:30.994Z,6.30
2018-07-21T11:10:31.139Z,7.10
2018-07-21T11:11:31.299Z,7.20
2018-07-21T11:12:31.417Z,7.10
2018-07-21T11:13:31.571Z,6.30
2018-07-21T11:14:31.733Z,6.40
2018-07-21T11:15:31.940Z,6.80
2018-07-21T11:16:32.022Z,6.50
2018-07-21T11:17:32.221Z,6.70
2018-07-21T11:18:33.160Z,6.50
2018-07-21T11:19:32.493Z,6.70
2018-07-21T11:20:32.633Z,6.70
2018-07-21T11:21:32.777Z,6.80
2018-07-21T11:22:32.927Z,6.90
2018-07-21T11:23:33.068Z,7.00
2018-07-21T11:24:33.212Z,6.40
2018-07-21T11:25:33.356Z,6.50
2018-07-21T11:26:33.501Z,6.60
2018-07-21T11:27:33.645Z,6.10
2018-07-21T11:28:33.788Z,6.90
2018-07-21T11:29:33.942Z,6.60
2018-07-21T11:30:34.081Z,6.70
2018-07-21T11:31:34.229Z,6.70
2018-07-21T11:32:34.370Z,7.10
2018-07-21T11:33:34.516Z,6.70
2018-07-21T11:34:34.660Z,6.80
2018-07-21T11:35:34.878Z,6.90
2018-07-21T11:36:34.985Z,6.80
2018-07-21T11:37:35.082Z,6.70
2018-07-21T11:38:35.227Z,6.50
2018-07-21T11:39:35.369Z,6.30
2018-07-21T11:40:35.508Z,11.40
2018-07-21T11:41:35.678Z,7.10
2018-07-21T11:42:35.830Z,7.00
2018-07-21T11:43:35.971Z,6.80
2018-07-21T11:44:36.231Z,8.60
2018-07-21T11:45:36.329Z,7.20
2018-07-21T11:46:36.481Z,6.90
2018-07-21T11:47:36.625Z,7.30
2018-07-21T11:48:36.768Z,6.60
2018-07-21T11:49:36.915Z,7.00
2018-07-21T11:50:37.292Z,6.80
2018-07-21T11:51:37.210Z,6.90
2018-07-21T11:52:37.350Z,6.80
2018-07-21T11:53:37.505Z,6.60
2018-07-21T11:54:37.657Z,7.10
2018-07-21T11:55:37.789Z,6.90
2018-07-21T11:56:37.963Z,6.60
2018-07-21T11:57:38.204Z,6.80
2018-07-21T11:58:38.233Z,6.90
2018-07-21T11:59:38.401Z,6.70
2018-07-21T12:00:38.536Z,6.70
2018-07-21T12:01:38.680Z,6.60
2018-07-21T12:02:38.847Z,6.40
2018-07-21T12:03:38.979Z,6.30
2018-07-21T12:04:39.119Z,6.80
2018-07-21T12:05:39.342Z,6.90
2018-07-21T12:06:39.400Z,6.30
2018-07-21T12:07:39.606Z,6.80
2018-07-21T12:08:39.670Z,6.70
2018-07-21T12:09:39.821Z,6.80
2018-07-21T12:10:39.968Z,6.80
2018-07-21T12:11:40.672Z,7.10
2018-07-21T12:12:40.228Z,7.00
2018-07-21T12:13:40.423Z,7.90
2018-07-21T12:14:40.505Z,7.70
2018-07-21T12:15:40.647Z,6.60
2018-07-21T12:16:40.787Z,8.00
2018-07-21T12:17:40.933Z,7.40
2018-07-21T12:18:41.183Z,6.90
2018-07-21T12:19:41.216Z,7.10
2018-07-21T12:20:41.356Z,6.50
2018-07-21T12:21:41.510Z,6.90
2018-07-21T12:22:41.648Z,7.30
2018-07-21T12:23:41.790Z,7.00
2018-07-21T12:24:41.940Z,7.30
2018-07-21T12:25:42.075Z,7.00
2018-07-21T12:26:42.217Z,6.70
2018-07-21T12:27:42.362Z,6.60
2018-07-21T12:28:42.502Z,7.30
2018-07-21T12:29:42.648Z,7.20
2018-07-21T12:30:42.802Z,11.70
2018-07-21T12:31:42.946Z,17.90
2018-07-21T12:32:43.090Z,15.70
2018-07-21T12:33:43.285Z,9.30
2018-07-21T12:34:43.381Z,8.40
2018-07-21T12:35:43.523Z,7.00
2018-07-21T12:36:43.663Z,6.80
2018-07-21T12:37:43.809Z,7.80
2018-07-21T12:38:43.954Z,6.60
2018-07-21T12:39:44.114Z,6.50
2018-07-21T12:40:44.267Z,6.30
2018-07-21T12:41:44.404Z,5.80
2018-07-21T12:42:44.570Z,6.20
2018-07-21T12:43:44.711Z,5.90
2018-07-21T12:44:44.915Z,6.10
2018-07-21T12:45:45.019Z,6.20
2018-07-21T12:46:45.159Z,6.20
2018-07-21T12:47:45.321Z,6.30
2018-07-21T12:48:45.469Z,6.10
2018-07-21T12:49:45.604Z,6.50
2018-07-21T12:50:45.747Z,6.10
2018-07-21T12:51:45.898Z,6.30
2018-07-21T12:52:46.042Z,5.90
2018-07-21T12:53:46.194Z,6.00
2018-07-21T12:54:46.346Z,5.60
2018-07-21T12:55:46.483Z,5.60
2018-07-21T12:56:46.623Z,6.10
2018-07-21T12:57:46.782Z,6.00
2018-07-21T12:58:46.912Z,6.10
2018-07-21T12:59:47.054Z,6.10
2018-07-21T13:00:47.208Z,5.70
2018-07-21T13:01:47.348Z,6.30
2018-07-21T13:02:47.505Z,5.70
2018-07-21T13:03:47.676Z,6.00
2018-07-21T13:04:47.804Z,6.40
2018-07-21T13:05:47.943Z,6.10
2018-07-21T13:06:48.092Z,5.90
2018-07-21T13:07:48.241Z,5.90
2018-07-21T13:08:48.384Z,6.00
2018-07-21T13:09:48.588Z,6.10
2018-07-21T13:10:48.696Z,6.30
2018-07-21T13:11:48.833Z,6.00
2018-07-21T13:12:49.007Z,5.60
2018-07-21T13:13:49.151Z,5.50
2018-07-21T13:14:49.293Z,5.50
2018-07-21T13:15:49.453Z,5.50
2018-07-21T13:16:49.588Z,5.30
2018-07-21T13:17:49.737Z,5.30
2018-07-21T13:18:49.884Z,5.50
2018-07-21T13:19:50.073Z,5.20